Eston, Canada
Current Conditions -  °F | °C
As of 9:51 PM on Friday 28 Nov 2014 (Local Time) from CYKY Reporting Station
Light Snow Light Snow  
Wind Chill: -24°   Ceiling: 700
Heat Index: -4°   Visibility: 2.5mi
Dew Point: -9°   Wind: 15mph
Humidity: 78%   Direction: 320°NW
Pressure: 29.65"   Gusts: 22mph
Location:  51.15°N, 108.75°W
Report Text: CYKY 290351Z 32013G19KT 2 1/2SM -SN DRSN OVC007 M20/M23 A2965 RMK SC8 SLP100
Loading
Personal Weather Stations






























Interactive Weather Map New forecast layout! Learn more

10-Day Weather Forecast

Advertisements
Track Severe Weather on mobile